createdAt,value
2023-01-04T00:01:55.917Z,97926.44
2023-01-04T00:04:22.752Z,97923.06
2023-01-04T00:06:49.488Z,97927.31
2023-01-04T00:09:16.317Z,97950.25
2023-01-04T00:11:43.173Z,97940.06
2023-01-04T00:14:11.607Z,97957.03
2023-01-04T00:16:38.478Z,97927.31
2023-01-04T00:19:05.226Z,97957.03
2023-01-04T00:21:32.093Z,97962.97
2023-01-04T00:24:00.869Z,97962.19
2023-01-04T00:26:30.198Z,97962.19
2023-01-04T00:29:02.093Z,97979.19
2023-01-04T00:31:29.018Z,97974.16
2023-01-04T00:33:57.583Z,97988.56
2023-01-04T00:36:25.028Z,97981.78
2023-01-04T00:39:07.752Z,98013.16
2023-01-04T00:42:00.373Z,98001.31
2023-01-04T00:44:28.773Z,97983.44
2023-01-04T00:46:56.173Z,97996.16
2023-01-04T00:49:23.335Z,98009.72
2023-01-04T00:51:50.161Z,98025.00
2023-01-04T00:54:17.456Z,98004.53
2023-01-04T00:56:44.689Z,98029.16
2023-01-04T00:59:13.558Z,98026.59
2023-01-04T01:01:41.446Z,98028.28
2023-01-04T01:04:12.535Z,98048.56
2023-01-04T01:06:39.796Z,98044.88
2023-01-04T01:09:06.682Z,98073.53
2023-01-04T01:11:34.293Z,98074.94
2023-01-04T01:14:01.054Z,98078.13
2023-01-04T01:16:53.074Z,98098.28
2023-01-04T01:19:14.780Z,98114.16
2023-01-04T01:21:41.833Z,98094.47
2023-01-04T01:24:16.130Z,98117.22
2023-01-04T01:26:42.946Z,98122.00
2023-01-04T01:29:09.647Z,98138.00
2023-01-04T01:31:36.425Z,98164.13
2023-01-04T01:34:03.337Z,98159.06
2023-01-04T01:36:30.044Z,98162.38
2023-01-04T01:38:56.755Z,98163.19
2023-01-04T01:41:29.960Z,98171.31
2023-01-04T01:44:02.625Z,98177.13
2023-01-04T01:46:43.115Z,98211.53
2023-01-04T01:49:33.923Z,98197.75
2023-01-04T01:52:06.752Z,98216.34
2023-01-04T01:54:39.788Z,98205.13
2023-01-04T01:57:09.183Z,98232.06
2023-01-04T01:59:40.877Z,98236.19
2023-01-04T02:02:08.011Z,98254.78
2023-01-04T02:04:37.666Z,98244.75
2023-01-04T02:07:05.035Z,98262.09
2023-01-04T02:09:33.493Z,98262.88
2023-01-04T02:12:00.181Z,98275.63
2023-01-04T02:14:27.081Z,98293.34
2023-01-04T02:16:56.787Z,98305.00
2023-01-04T02:19:57.526Z,98317.69
2023-01-04T02:22:51.883Z,98315.06
2023-01-04T02:25:39.745Z,98318.16
2023-01-04T02:28:37.366Z,98341.81
2023-01-04T02:31:49.905Z,98365.47
2023-01-04T02:34:31.669Z,98322.28
2023-01-04T02:37:06.386Z,98350.09
2023-01-04T02:40:22.057Z,98377.00
2023-01-04T02:43:27.625Z,98371.66
2023-01-04T02:46:01.172Z,98375.88
2023-01-04T02:48:54.814Z,98374.38
2023-01-04T02:51:33.549Z,98391.13
2023-01-04T02:54:13.023Z,98387.78
2023-01-04T02:57:05.821Z,98400.56
2023-01-04T02:59:54.692Z,98420.66
2023-01-04T03:03:04.822Z,98418.84
2023-01-04T03:06:17.509Z,98421.59
2023-01-04T03:09:04.423Z,98436.47
2023-01-04T03:11:59.783Z,98434.81
2023-01-04T03:14:33.664Z,98460.78
2023-01-04T03:17:05.617Z,98465.88
2023-01-04T03:19:51.709Z,98461.69
2023-01-04T03:22:51.140Z,98476.00
2023-01-04T03:25:42.364Z,98477.72
2023-01-04T03:28:32.669Z,98487.97
2023-01-04T03:31:34.572Z,98505.81
2023-01-04T03:34:19.789Z,98497.25
2023-01-04T03:36:50.394Z,98523.56
2023-01-04T03:39:47.856Z,98520.19
2023-01-04T03:42:41.270Z,98528.69
2023-01-04T03:45:41.444Z,98532.97
2023-01-04T03:48:33.255Z,98525.47
2023-01-04T03:51:23.719Z,98550.16
2023-01-04T03:54:20.701Z,98562.78
2023-01-04T03:56:50.210Z,98571.91
2023-01-04T03:59:17.205Z,98564.31
2023-01-04T04:01:45.076Z,98572.81
2023-01-04T04:04:30.540Z,98576.19
2023-01-04T04:07:15.716Z,98575.88
2023-01-04T04:09:42.490Z,98580.19
2023-01-04T04:12:09.237Z,98569.84
2023-01-04T04:14:36.038Z,98601.22
2023-01-04T04:17:02.930Z,98606.28
2023-01-04T04:19:29.713Z,98598.75
2023-01-04T04:21:56.515Z,98623.25
2023-01-04T04:24:25.598Z,98610.56
2023-01-04T04:26:56.973Z,98628.44
2023-01-04T04:29:24.545Z,98625.00
2023-01-04T04:31:51.547Z,98620.91
2023-01-04T04:34:18.614Z,98621.72
2023-01-04T04:36:45.484Z,98635.22
2023-01-04T04:39:12.863Z,98631.75
2023-01-04T04:41:41.809Z,98644.56
2023-01-04T04:44:09.935Z,98636.84
2023-01-04T04:46:37.004Z,98645.34
2023-01-04T04:49:04.495Z,98654.66
2023-01-04T04:51:31.416Z,98637.69
2023-01-04T04:53:58.444Z,98669.81
2023-01-04T04:56:25.276Z,98677.41
2023-01-04T04:58:52.315Z,98679.16
2023-01-04T05:01:19.813Z,98677.53
2023-01-04T05:03:46.810Z,98681.69
2023-01-04T05:06:13.929Z,98683.38
2023-01-04T05:08:40.653Z,98694.38
2023-01-04T05:11:09.973Z,98696.06
2023-01-04T05:13:37.045Z,98717.13
2023-01-04T05:16:05.698Z,98713.50
2023-01-04T05:18:32.605Z,98715.94
2023-01-04T05:21:00.138Z,98717.56
2023-01-04T05:23:26.993Z,98730.81
2023-01-04T05:25:57.665Z,98738.59
2023-01-04T05:28:24.839Z,98726.41
2023-01-04T05:30:53.917Z,98736.50
2023-01-04T05:33:29.402Z,98752.22
2023-01-04T05:36:00.010Z,98756.75
2023-01-04T05:38:27.375Z,98775.34
2023-01-04T05:40:54.549Z,98773.84
2023-01-04T05:43:23.408Z,98781.41
2023-01-04T05:45:52.868Z,98782.50
2023-01-04T05:48:21.137Z,98806.91
2023-01-04T05:50:48.318Z,98796.06
2023-01-04T05:53:19.523Z,98810.31
2023-01-04T05:55:48.426Z,98811.00
2023-01-04T05:58:15.567Z,98805.88
2023-01-04T06:00:42.318Z,98807.56
2023-01-04T06:03:09.127Z,98812.56
2023-01-04T06:05:35.995Z,98810.81
2023-01-04T06:08:02.784Z,98825.81
2023-01-04T06:10:29.823Z,98822.56
2023-01-04T06:12:56.703Z,98827.28
2023-01-04T06:15:23.429Z,98830.75
2023-01-04T06:17:50.158Z,98844.47
2023-01-04T06:20:17.196Z,98837.31
2023-01-04T06:22:44.625Z,98836.72
2023-01-04T06:25:11.556Z,98840.66
2023-01-04T06:27:38.512Z,98861.91
2023-01-04T06:30:05.842Z,98865.72
2023-01-04T06:32:32.846Z,98854.13
2023-01-04T06:34:59.665Z,98884.38
2023-01-04T06:37:26.590Z,98884.38
2023-01-04T06:39:53.726Z,98896.94
2023-01-04T06:42:39.224Z,98901.13
2023-01-04T06:45:06.521Z,98891.69
2023-01-04T06:47:33.296Z,98892.44
2023-01-04T06:50:00.226Z,98890.06
2023-01-04T06:52:27.190Z,98889.34
2023-01-04T06:54:53.912Z,98900.56
2023-01-04T06:57:20.741Z,98914.78
2023-01-04T06:59:47.517Z,98921.31
2023-01-04T07:02:15.457Z,98931.47
2023-01-04T07:04:43.530Z,98930.47
2023-01-04T07:07:10.670Z,98936.44
2023-01-04T07:09:38.297Z,98931.91
2023-01-04T07:12:05.475Z,98937.91
2023-01-04T07:14:32.192Z,98950.34
2023-01-04T07:16:58.972Z,98949.63
2023-01-04T07:19:25.779Z,98951.41
2023-01-04T07:21:53.837Z,98951.13
2023-01-04T07:24:24.682Z,98964.31
2023-01-04T07:26:54.749Z,98972.69
2023-01-04T07:29:22.535Z,98971.78
2023-01-04T07:31:52.561Z,98976.31
2023-01-04T07:34:21.314Z,98976.44
2023-01-04T07:36:49.479Z,98971.50
2023-01-04T07:39:17.692Z,98985.09
2023-01-04T07:41:45.163Z,98985.28
2023-01-04T07:44:13.431Z,98987.88
2023-01-04T07:46:40.648Z,98993.63
2023-01-04T07:49:16.569Z,98991.63
2023-01-04T07:51:45.629Z,98998.31
2023-01-04T07:54:12.573Z,99006.81
2023-01-04T07:56:39.588Z,99005.97
2023-01-04T07:59:08.077Z,99011.88
2023-01-04T08:01:37.875Z,99021.47
2023-01-04T08:04:07.070Z,99014.56
2023-01-04T08:06:34.590Z,99020.16
2023-01-04T08:09:02.403Z,99033.75
2023-01-04T08:11:29.229Z,99017.75
2023-01-04T08:13:56.038Z,99042.13
2023-01-04T08:16:33.956Z,99035.16
2023-01-04T08:19:03.496Z,99033.38
2023-01-04T08:21:32.222Z,99040.00
2023-01-04T08:23:59.024Z,99041.88
2023-01-04T08:26:26.001Z,99046.19
2023-01-04T08:28:52.878Z,99049.19
2023-01-04T08:31:22.301Z,99044.94
2023-01-04T08:33:50.249Z,99041.75
2023-01-04T08:36:26.658Z,99061.41
2023-01-04T08:39:01.349Z,99050.41
2023-01-04T08:41:56.621Z,99049.34
2023-01-04T08:44:26.808Z,99050.72
2023-01-04T08:46:54.597Z,99054.94
2023-01-04T08:49:22.491Z,99063.31
2023-01-04T08:51:49.687Z,99064.19
2023-01-04T08:54:16.632Z,99062.53
2023-01-04T08:56:43.751Z,99064.19
2023-01-04T08:59:13.135Z,99060.94
2023-01-04T09:01:40.962Z,99053.19
2023-01-04T09:04:08.280Z,99058.00
2023-01-04T09:06:35.496Z,99054.69
2023-01-04T09:09:02.329Z,99060.59
2023-01-04T09:11:29.249Z,99066.53
2023-01-04T09:14:06.384Z,99050.13
2023-01-04T09:16:34.350Z,99058.13
2023-01-04T09:19:01.212Z,99063.19
2023-01-04T09:21:28.361Z,99058.94
2023-01-04T09:23:57.381Z,99057.13
2023-01-04T09:26:24.684Z,99063.19
2023-01-04T09:28:56.024Z,99058.13
2023-01-04T09:31:25.970Z,99060.84
2023-01-04T09:36:40.272Z,99070.13
2023-01-04T09:39:07.060Z,99065.06
2023-01-04T09:41:43.407Z,99080.31
2023-01-04T09:44:10.096Z,99068.53
2023-01-04T09:46:52.932Z,99060.16
2023-01-04T09:49:36.623Z,99077.19
2023-01-04T09:52:11.651Z,99068.38
2023-01-04T09:55:02.917Z,99067.75
2023-01-04T09:57:53.826Z,99070.66
2023-01-04T10:00:27.530Z,99080.78
2023-01-04T10:03:07.660Z,99067.31
2023-01-04T10:05:35.037Z,99061.47
2023-01-04T10:08:03.360Z,99057.47
2023-01-04T10:11:11.204Z,99045.94
2023-01-04T10:14:15.330Z,99051.19
2023-01-04T10:17:13.721Z,99052.13
2023-01-04T10:22:58.576Z,99049.19
2023-01-04T10:25:50.534Z,99050.97
2023-01-04T10:28:34.500Z,99053.03
2023-01-04T10:31:40.370Z,99050.63
2023-01-04T10:34:46.485Z,99056.69
2023-01-04T10:37:25.096Z,99045.69
2023-01-04T10:39:56.273Z,99047.94
2023-01-04T10:42:25.842Z,99046.88
2023-01-04T10:45:18.814Z,99048.50
2023-01-04T10:47:54.748Z,99049.88
2023-01-04T10:50:38.077Z,99047.97
2023-01-04T10:53:22.111Z,99041.38
2023-01-04T10:56:25.597Z,99046.50
2023-01-04T10:58:54.780Z,99049.59
2023-01-04T11:01:28.927Z,99031.91
2023-01-04T11:04:19.471Z,99039.72
2023-01-04T11:07:27.581Z,99025.31
2023-01-04T11:10:07.370Z,99048.25
2023-01-04T11:12:34.173Z,99045.66
2023-01-04T11:15:01.146Z,99039.59
2023-01-04T11:17:32.343Z,99046.41
2023-01-04T11:19:59.201Z,99045.41
2023-01-04T11:22:30.473Z,99047.13
2023-01-04T11:28:16.182Z,99055.84
2023-01-04T11:31:01.845Z,99047.25
2023-01-04T11:33:28.806Z,99061.53
2023-01-04T11:35:59.181Z,99061.31
2023-01-04T11:38:28.353Z,99054.53
2023-01-04T11:41:06.638Z,99061.19
2023-01-04T11:43:38.754Z,99064.41
2023-01-04T11:46:17.429Z,99081.19
2023-01-04T11:48:46.103Z,99077.44
2023-01-04T11:51:31.598Z,99082.00
2023-01-04T11:54:02.234Z,99084.31
2023-01-04T11:56:31.443Z,99078.25
2023-01-04T11:59:20.636Z,99075.63
2023-01-04T12:02:10.157Z,99079.16
2023-01-04T12:04:37.041Z,99085.09
2023-01-04T12:07:13.939Z,99087.66
2023-01-04T12:09:40.708Z,99089.41
2023-01-04T12:12:12.370Z,99089.41
2023-01-04T12:14:48.391Z,99074.38
2023-01-04T12:17:50.461Z,99075.38
2023-01-04T12:20:20.360Z,99077.84
2023-01-04T12:22:47.330Z,99072.94
2023-01-04T12:25:50.044Z,99081.72
2023-01-04T12:28:41.053Z,99081.72
2023-01-04T12:31:20.683Z,99073.19
2023-01-04T12:33:52.681Z,99083.03
2023-01-04T12:36:43.310Z,99079.84
2023-01-04T12:39:15.732Z,99082.09
2023-01-04T12:42:00.803Z,99073.03
2023-01-04T12:44:36.894Z,99071.59
2023-01-04T12:47:42.000Z,99070.59
2023-01-04T12:50:13.744Z,99075.03
2023-01-04T12:55:31.605Z,99070.78
2023-01-04T12:57:59.369Z,99073.44
2023-01-04T13:00:51.084Z,99068.53
2023-01-04T13:03:18.355Z,99069.28
2023-01-04T13:06:03.849Z,99067.84
2023-01-04T13:08:35.764Z,99075.34
2023-01-04T13:11:05.491Z,99083.72
2023-01-04T13:14:13.755Z,99104.72
2023-01-04T13:17:03.404Z,99086.63
2023-01-04T13:19:31.410Z,99085.94
2023-01-04T13:21:58.849Z,99080.91
2023-01-04T13:24:37.098Z,99084.50
2023-01-04T13:27:09.006Z,99078.69
2023-01-04T13:29:36.598Z,99074.50
2023-01-04T13:32:15.145Z,99088.38
2023-01-04T13:34:59.658Z,99084.56
2023-01-04T13:37:26.336Z,99084.34
2023-01-04T13:40:01.126Z,99084.22
2023-01-04T13:42:33.467Z,99071.56
2023-01-04T13:45:20.513Z,99058.91
2023-01-04T13:47:51.737Z,99070.09
2023-01-04T13:50:29.798Z,99079.44
2023-01-04T13:53:06.278Z,99076.69
2023-01-04T13:55:36.613Z,99080.06
2023-01-04T13:58:06.178Z,99070.63
2023-01-04T14:00:43.014Z,99060.66
2023-01-04T14:03:37.119Z,99052.53
2023-01-04T14:06:09.764Z,99061.19
2023-01-04T14:08:41.971Z,99062.31
2023-01-04T14:11:59.183Z,99068.38
2023-01-04T14:14:35.713Z,99062.38
2023-01-04T14:17:22.126Z,99056.78
2023-01-04T14:19:57.666Z,99053.47
2023-01-04T14:22:24.367Z,99056.09
2023-01-04T14:25:10.042Z,99054.53
2023-01-04T14:27:44.792Z,99050.66
2023-01-04T14:30:20.532Z,99049.34
2023-01-04T14:33:02.615Z,99042.81
2023-01-04T14:35:30.479Z,99036.00
2023-01-04T14:38:06.453Z,99023.59
2023-01-04T14:40:34.052Z,99031.06
2023-01-04T14:43:00.810Z,99019.19
2023-01-04T14:45:27.586Z,99018.34
2023-01-04T14:47:54.310Z,99008.41
2023-01-04T14:50:21.063Z,99013.50
2023-01-04T14:52:54.676Z,99011.19
2023-01-04T14:55:23.458Z,99011.97
2023-01-04T14:57:50.921Z,99019.78
2023-01-04T15:00:19.935Z,98997.97
2023-01-04T15:02:50.969Z,99001.28
2023-01-04T15:05:21.212Z,98997.81
2023-01-04T15:07:48.412Z,98993.50
2023-01-04T15:10:26.579Z,99002.09
2023-01-04T15:12:54.983Z,98987.69
2023-01-04T15:15:22.217Z,98998.03
2023-01-04T15:17:49.461Z,99001.56
2023-01-04T15:20:16.325Z,98988.94
2023-01-04T15:22:44.124Z,98987.34
2023-01-04T15:25:11.733Z,98978.19
2023-01-04T15:27:42.457Z,98964.84
2023-01-04T15:30:11.796Z,98967.66
2023-01-04T15:32:39.195Z,98956.94
2023-01-04T15:35:06.391Z,98956.22
2023-01-04T15:37:33.145Z,98957.94
2023-01-04T15:40:02.725Z,98948.63
2023-01-04T15:42:49.411Z,98950.13
2023-01-04T15:45:16.514Z,98933.16
2023-01-04T15:47:43.374Z,98931.44
2023-01-04T15:50:10.148Z,98936.53
2023-01-04T15:52:36.908Z,98935.03
2023-01-04T15:55:03.921Z,98928.22
2023-01-04T15:57:30.707Z,98918.09
2023-01-04T15:59:57.524Z,98913.84
2023-01-04T16:02:24.888Z,98911.31
2023-01-04T16:04:51.694Z,98907.94
2023-01-04T16:07:18.918Z,98903.00
2023-01-04T16:09:45.660Z,98900.63
2023-01-04T16:12:30.881Z,98896.31
2023-01-04T16:14:57.651Z,98895.53
2023-01-04T16:17:25.428Z,98895.69
2023-01-04T16:19:52.205Z,98886.28
2023-01-04T16:22:19.339Z,98886.38
2023-01-04T16:25:10.010Z,98883.81
2023-01-04T16:27:35.591Z,98888.84
2023-01-04T16:30:04.002Z,98876.16
2023-01-04T16:32:32.362Z,98866.00
2023-01-04T16:34:59.224Z,98863.41
2023-01-04T16:37:28.077Z,98853.28
2023-01-04T16:40:11.316Z,98849.06
2023-01-04T16:42:38.851Z,98842.28
2023-01-04T16:45:07.095Z,98838.19
2023-01-04T16:47:42.242Z,98835.94
2023-01-04T16:50:10.776Z,98832.47
2023-01-04T16:52:38.777Z,98832.47
2023-01-04T16:55:06.819Z,98834.94
2023-01-04T16:57:33.700Z,98827.94
2023-01-04T17:00:00.565Z,98832.75
2023-01-04T17:02:27.428Z,98825.97
2023-01-04T17:04:59.680Z,98822.53
2023-01-04T17:07:32.449Z,98814.97
2023-01-04T17:10:02.123Z,98806.44
2023-01-04T17:12:48.026Z,98800.63
2023-01-04T17:18:03.263Z,98797.00
2023-01-04T17:20:30.127Z,98786.84
2023-01-04T17:22:56.955Z,98784.31
2023-01-04T17:25:23.722Z,98788.59
2023-01-04T17:27:50.535Z,98779.38
2023-01-04T17:30:17.250Z,98767.50
2023-01-04T17:32:43.974Z,98768.38
2023-01-04T17:35:10.729Z,98762.44
2023-01-04T17:37:37.534Z,98759.09
2023-01-04T17:40:04.614Z,98760.19
2023-01-04T17:42:34.245Z,98753.38
2023-01-04T17:45:01.018Z,98748.25
2023-01-04T17:47:27.797Z,98734.72
2023-01-04T17:49:54.571Z,98730.63
2023-01-04T17:52:30.417Z,98735.69
2023-01-04T17:54:57.899Z,98730.75
2023-01-04T17:57:24.668Z,98721.47
2023-01-04T17:59:51.438Z,98724.78
2023-01-04T18:02:18.425Z,98713.00
2023-01-04T18:04:45.232Z,98710.59
2023-01-04T18:09:43.705Z,98712.34
2023-01-04T18:12:10.601Z,98707.34
2023-01-04T18:14:37.353Z,98711.56
2023-01-04T18:17:06.210Z,98712.41
2023-01-04T18:19:33.099Z,98716.66
2023-01-04T18:21:59.966Z,98713.25
2023-01-04T18:24:42.379Z,98702.47
2023-01-04T18:27:23.287Z,98703.44
2023-01-04T18:29:52.661Z,98713.56
2023-01-04T18:32:20.917Z,98701.06
2023-01-04T18:34:47.766Z,98689.38
2023-01-04T18:37:16.112Z,98692.84
2023-01-04T18:39:43.231Z,98691.22
2023-01-04T18:42:10.198Z,98681.19
2023-01-04T18:44:43.824Z,98683.06
2023-01-04T18:47:10.818Z,98683.13
2023-01-04T18:49:38.565Z,98688.19
2023-01-04T18:52:05.667Z,98676.41
2023-01-04T18:54:32.449Z,98668.19
2023-01-04T18:57:01.345Z,98669.91
2023-01-04T18:59:29.469Z,98679.44
2023-01-04T19:02:01.469Z,98668.47
2023-01-04T19:04:30.901Z,98666.97
2023-01-04T19:06:58.126Z,98665.38
2023-01-04T19:09:25.114Z,98664.59
2023-01-04T19:11:52.040Z,98668.88
2023-01-04T19:14:18.906Z,98658.00
2023-01-04T19:16:45.858Z,98656.41
2023-01-04T19:19:12.694Z,98659.81
2023-01-04T19:21:39.431Z,98661.59
2023-01-04T19:24:06.574Z,98651.50
2023-01-04T19:26:33.382Z,98645.69
2023-01-04T19:29:00.495Z,98645.69
2023-01-04T19:31:27.474Z,98654.19
2023-01-04T19:33:54.223Z,98638.28
2023-01-04T19:36:21.315Z,98643.41
2023-01-04T19:38:48.316Z,98648.66
2023-01-04T19:41:29.142Z,98640.28
2023-01-04T19:44:03.106Z,98632.72
2023-01-04T19:46:31.636Z,98638.75
2023-01-04T19:48:58.613Z,98627.81
2023-01-04T19:51:25.376Z,98633.84
2023-01-04T19:53:52.211Z,98631.25
2023-01-04T19:56:19.024Z,98622.72
2023-01-04T19:58:45.810Z,98619.34
2023-01-04T20:01:17.075Z,98626.09
2023-01-04T20:03:44.248Z,98620.84
2023-01-04T20:06:12.592Z,98613.16
2023-01-04T20:08:40.247Z,98608.13
2023-01-04T20:11:07.521Z,98619.97
2023-01-04T20:13:34.484Z,98621.72
2023-01-04T20:16:04.814Z,98598.97
2023-01-04T20:18:32.605Z,98608.34
2023-01-04T20:20:59.356Z,98611.78
2023-01-04T20:23:26.179Z,98604.97
2023-01-04T20:25:53.841Z,98616.81
2023-01-04T20:28:23.379Z,98610.88
2023-01-04T20:31:01.131Z,98594.00
2023-01-04T20:33:27.934Z,98600.72
2023-01-04T20:35:54.665Z,98601.56
2023-01-04T20:38:21.380Z,98588.03
2023-01-04T20:40:48.096Z,98589.88
2023-01-04T20:43:34.022Z,98595.69
2023-01-04T20:46:02.650Z,98588.91
2023-01-04T20:48:29.778Z,98577.88
2023-01-04T20:50:56.851Z,98584.59
2023-01-04T20:53:23.795Z,98580.41
2023-01-04T20:55:50.672Z,98594.00
2023-01-04T20:58:17.930Z,98591.41
2023-01-04T21:00:46.389Z,98579.47
2023-01-04T21:03:13.834Z,98591.31
2023-01-04T21:05:45.382Z,98577.03
2023-01-04T21:08:13.142Z,98577.06
2023-01-04T21:10:41.987Z,98580.47
2023-01-04T21:13:09.959Z,98571.84
2023-01-04T21:15:37.575Z,98592.25
2023-01-04T21:18:05.638Z,98567.75
2023-01-04T21:20:33.037Z,98565.28
2023-01-04T21:22:59.788Z,98559.34
2023-01-04T21:25:26.660Z,98548.34
2023-01-04T21:27:53.627Z,98546.66
2023-01-04T21:30:20.796Z,98556.81
2023-01-04T21:32:47.614Z,98556.09
2023-01-04T21:35:14.437Z,98543.22
2023-01-04T21:37:41.157Z,98560.09
2023-01-04T21:40:08.443Z,98543.00
2023-01-04T21:42:35.336Z,98548.97
2023-01-04T21:45:02.176Z,98540.47
2023-01-04T21:47:31.297Z,98540.38
2023-01-04T21:49:58.044Z,98534.41
2023-01-04T21:52:24.915Z,98546.19
2023-01-04T21:54:52.160Z,98546.19
2023-01-04T21:57:18.914Z,98561.38
2023-01-04T21:59:45.732Z,98569.69
2023-01-04T22:02:17.035Z,98546.03
2023-01-04T22:04:44.464Z,98556.78
2023-01-04T22:07:11.373Z,98549.97
2023-01-04T22:09:38.210Z,98559.09
2023-01-04T22:12:05.473Z,98573.56
2023-01-04T22:14:33.285Z,98535.56
2023-01-04T22:17:00.194Z,98539.81
2023-01-04T22:19:27.279Z,98529.56
2023-01-04T22:21:54.140Z,98536.97
2023-01-04T22:24:20.936Z,98534.44
2023-01-04T22:26:49.299Z,98537.75
2023-01-04T22:29:17.026Z,98526.75
2023-01-04T22:31:43.785Z,98528.34
2023-01-04T22:34:10.547Z,98517.41
2023-01-04T22:36:37.310Z,98516.50
2023-01-04T22:39:04.314Z,98524.91
2023-01-04T22:41:31.049Z,98522.38
2023-01-04T22:44:03.537Z,98517.41
2023-01-04T22:46:32.418Z,98513.06
2023-01-04T22:49:00.833Z,98506.25
2023-01-04T22:51:29.266Z,98508.75
2023-01-04T22:54:01.288Z,98516.41
2023-01-04T22:56:28.892Z,98519.50
2023-01-04T22:58:56.772Z,98498.31
2023-01-04T23:01:29.672Z,98499.91
2023-01-04T23:03:57.949Z,98515.78
2023-01-04T23:06:26.107Z,98503.91
2023-01-04T23:09:05.106Z,98493.94
2023-01-04T23:11:33.911Z,98519.22
2023-01-04T23:14:06.065Z,98499.59
2023-01-04T23:16:33.639Z,98512.22
2023-01-04T23:19:02.643Z,98501.34
2023-01-04T23:21:30.178Z,98500.38
2023-01-04T23:23:57.155Z,98507.88
2023-01-04T23:26:25.720Z,98482.53
2023-01-04T23:28:52.758Z,98483.44
2023-01-04T23:31:22.079Z,98494.63
2023-01-04T23:33:54.017Z,98484.53
2023-01-04T23:36:23.720Z,98492.13
2023-01-04T23:38:53.433Z,98514.19
2023-01-04T23:41:20.635Z,98499.88
2023-01-04T23:43:47.487Z,98486.34
2023-01-04T23:46:17.839Z,98488.06
2023-01-04T23:48:45.256Z,98480.47
2023-01-04T23:51:13.143Z,98485.53
2023-01-04T23:53:40.077Z,98480.34
2023-01-04T23:56:13.452Z,98482.91
2023-01-04T23:58:40.282Z,98481.09
